createdAt,value
2018-08-24T00:02:21.402Z,98196.27
2018-08-24T00:04:50.633Z,98192.59
2018-08-24T00:07:19.851Z,98181.48
2018-08-24T00:09:51.227Z,98187.00
2018-08-24T00:12:20.720Z,98186.04
2018-08-24T00:14:49.954Z,98182.52
2018-08-24T00:17:24.370Z,98175.42
2018-08-24T00:19:53.573Z,98171.66
2018-08-24T00:22:22.944Z,98177.41
2018-08-24T00:24:52.133Z,98169.22
2018-08-24T00:27:21.285Z,98172.38
2018-08-24T00:29:50.440Z,98170.78
2018-08-24T00:32:19.702Z,98171.69
2018-08-24T00:34:48.908Z,98166.11
2018-08-24T00:37:18.122Z,98163.47
2018-08-24T00:39:47.282Z,98171.92
2018-08-24T00:42:16.453Z,98176.59
2018-08-24T00:44:45.654Z,98177.14
2018-08-24T00:47:14.804Z,98180.17
2018-08-24T00:49:43.977Z,98176.76
2018-08-24T00:52:13.185Z,98177.90
2018-08-24T00:54:42.374Z,98180.37
2018-08-24T00:57:11.650Z,98177.20
2018-08-24T00:59:40.844Z,98177.40
2018-08-24T01:02:10.029Z,98174.18
2018-08-24T01:04:39.225Z,98171.63
2018-08-24T01:07:14.573Z,98174.54
2018-08-24T01:09:43.909Z,98167.49
2018-08-24T01:12:14.433Z,98170.61
2018-08-24T01:14:47.740Z,98156.59
2018-08-24T01:17:22.009Z,98160.41
2018-08-24T01:19:51.404Z,98151.11
2018-08-24T01:22:22.167Z,98157.19
2018-08-24T01:24:51.357Z,98153.77
2018-08-24T01:27:20.545Z,98147.52
2018-08-24T01:29:49.800Z,98148.27
2018-08-24T01:32:18.957Z,98156.00
2018-08-24T01:34:48.418Z,98159.45
2018-08-24T01:37:17.583Z,98163.92
2018-08-24T01:39:46.737Z,98160.27
2018-08-24T01:42:15.930Z,98163.61
2018-08-24T01:44:45.086Z,98170.18
2018-08-24T01:47:14.250Z,98168.42
2018-08-24T01:49:43.464Z,98157.42
2018-08-24T01:52:12.642Z,98160.56
2018-08-24T01:54:41.859Z,98153.97
2018-08-24T01:57:11.846Z,98148.48
2018-08-24T01:59:41.130Z,98142.98
2018-08-24T02:02:10.349Z,98143.25
2018-08-24T02:04:39.569Z,98142.84
2018-08-24T02:07:08.874Z,98143.73
2018-08-24T02:09:38.256Z,98146.29
2018-08-24T02:12:11.574Z,98145.19
2018-08-24T02:14:40.762Z,98151.16
2018-08-24T02:17:15.103Z,98152.41
2018-08-24T02:19:49.327Z,98151.14
2018-08-24T02:22:19.460Z,98154.48
2018-08-24T02:24:48.728Z,98158.73
2018-08-24T02:27:19.138Z,98161.52
2018-08-24T02:29:50.258Z,98165.98
2018-08-24T02:32:22.541Z,98169.27
2018-08-24T02:34:51.757Z,98173.81
2018-08-24T02:37:20.971Z,98176.05
2018-08-24T02:39:50.166Z,98163.78
2018-08-24T02:42:19.369Z,98160.36
2018-08-24T02:44:48.561Z,98161.80
2018-08-24T02:47:18.433Z,98160.75
2018-08-24T02:49:47.669Z,98152.92
2018-08-24T02:52:16.876Z,98146.70
2018-08-24T02:54:46.045Z,98145.13
2018-08-24T02:57:15.211Z,98153.01
2018-08-24T02:59:44.541Z,98156.82
2018-08-24T03:02:13.811Z,98146.08
2018-08-24T03:04:43.053Z,98155.63
2018-08-24T03:07:12.241Z,98154.83
2018-08-24T03:09:41.435Z,98156.27
2018-08-24T03:12:10.675Z,98155.78
2018-08-24T03:14:39.902Z,98157.84
2018-08-24T03:17:14.362Z,98162.31
2018-08-24T03:19:43.561Z,98159.19
2018-08-24T03:22:12.757Z,98153.38
2018-08-24T03:24:42.092Z,98157.81
2018-08-24T03:27:11.806Z,98158.14
2018-08-24T03:29:41.087Z,98158.44
2018-08-24T03:32:10.273Z,98159.95
2018-08-24T03:34:40.830Z,98155.16
2018-08-24T03:37:10.283Z,98159.55
2018-08-24T03:39:39.503Z,98160.98
2018-08-24T03:42:09.743Z,98163.51
2018-08-24T03:44:39.018Z,98154.38
2018-08-24T03:47:08.456Z,98157.30
2018-08-24T03:49:37.639Z,98155.55
2018-08-24T03:52:06.857Z,98151.02
2018-08-24T03:54:36.054Z,98152.63
2018-08-24T03:57:05.404Z,98156.77
2018-08-24T03:59:34.659Z,98151.91
2018-08-24T04:02:05.607Z,98156.22
2018-08-24T04:04:34.765Z,98152.16
2018-08-24T04:07:04.005Z,98148.66
2018-08-24T04:09:33.342Z,98147.55
2018-08-24T04:12:02.512Z,98141.34
2018-08-24T04:14:31.742Z,98144.05
2018-08-24T04:18:04.188Z,98139.73
2018-08-24T04:20:33.362Z,98143.95
2018-08-24T04:23:02.566Z,98142.12
2018-08-24T04:25:31.809Z,98149.98
2018-08-24T04:28:01.040Z,98153.30
2018-08-24T04:30:30.259Z,98154.66
2018-08-24T04:32:59.437Z,98154.43
2018-08-24T04:35:28.733Z,98151.73
2018-08-24T04:37:57.981Z,98147.67
2018-08-24T04:40:27.330Z,98147.34
2018-08-24T04:42:56.487Z,98143.04
2018-08-24T04:45:25.757Z,98155.93
2018-08-24T04:47:54.930Z,98158.96
2018-08-24T04:50:24.142Z,98162.77
2018-08-24T04:52:53.447Z,98178.44
2018-08-24T04:55:22.620Z,98174.74
2018-08-24T04:57:51.814Z,98175.83
2018-08-24T05:00:20.994Z,98177.43
2018-08-24T05:02:50.394Z,98175.80
2018-08-24T05:05:19.553Z,98173.92
2018-08-24T05:07:48.709Z,98167.39
2018-08-24T05:10:17.963Z,98167.41
2018-08-24T05:12:47.154Z,98163.19
2018-08-24T05:15:16.349Z,98158.75
2018-08-24T05:17:45.509Z,98158.03
2018-08-24T05:20:14.725Z,98160.25
2018-08-24T05:22:44.314Z,98155.16
2018-08-24T05:25:13.524Z,98165.44
2018-08-24T05:27:42.762Z,98162.18
2018-08-24T05:30:11.969Z,98163.22
2018-08-24T05:32:41.249Z,98167.58
2018-08-24T05:35:11.234Z,98168.55
2018-08-24T05:37:40.446Z,98172.59
2018-08-24T05:40:09.645Z,98170.89
2018-08-24T05:42:38.913Z,98172.45
2018-08-24T05:45:08.337Z,98172.27
2018-08-24T05:47:37.527Z,98164.58
2018-08-24T05:50:07.005Z,98169.20
2018-08-24T05:52:36.372Z,98174.34
2018-08-24T05:55:05.773Z,98176.77
2018-08-24T05:57:35.034Z,98169.39
2018-08-24T06:00:04.375Z,98168.00
2018-08-24T06:02:33.595Z,98173.13
2018-08-24T06:05:02.809Z,98174.59
2018-08-24T06:07:32.057Z,98170.13
2018-08-24T06:10:01.284Z,98171.57
2018-08-24T06:12:30.476Z,98170.53
2018-08-24T06:14:59.717Z,98180.47
2018-08-24T06:17:34.144Z,98175.00
2018-08-24T06:20:03.396Z,98171.69
2018-08-24T06:22:32.754Z,98167.88
2018-08-24T06:25:01.943Z,98165.14
2018-08-24T06:27:31.178Z,98173.10
2018-08-24T06:30:00.420Z,98183.33
2018-08-24T06:32:29.589Z,98185.73
2018-08-24T06:34:59.065Z,98183.79
2018-08-24T06:37:28.301Z,98182.55
2018-08-24T06:39:58.270Z,98182.98
2018-08-24T06:42:27.626Z,98187.98
2018-08-24T06:44:56.853Z,98187.31
2018-08-24T06:47:26.165Z,98187.51
2018-08-24T06:49:55.814Z,98185.22
2018-08-24T06:52:25.310Z,98189.52
2018-08-24T06:54:54.585Z,98190.88
2018-08-24T06:57:23.860Z,98193.81
2018-08-24T06:59:53.090Z,98193.38
2018-08-24T07:02:22.273Z,98197.27
2018-08-24T07:04:51.472Z,98203.64
2018-08-24T07:07:20.660Z,98211.94
2018-08-24T07:09:49.918Z,98202.73
2018-08-24T07:12:19.173Z,98211.13
2018-08-24T07:14:48.375Z,98206.48
2018-08-24T07:17:22.562Z,98206.47
2018-08-24T07:19:51.820Z,98206.33
2018-08-24T07:22:21.541Z,98212.45
2018-08-24T07:24:50.775Z,98219.48
2018-08-24T07:27:20.125Z,98220.62
2018-08-24T07:29:49.334Z,98228.67
2018-08-24T07:32:18.638Z,98232.86
2018-08-24T07:34:47.815Z,98227.20
2018-08-24T07:37:17.033Z,98231.97
2018-08-24T07:39:46.330Z,98228.80
2018-08-24T07:42:15.534Z,98224.48
2018-08-24T07:44:50.097Z,98229.69
2018-08-24T07:47:19.402Z,98237.62
2018-08-24T07:49:48.638Z,98230.84
2018-08-24T07:52:17.841Z,98235.38
2018-08-24T07:54:47.148Z,98232.02
2018-08-24T07:57:16.397Z,98234.39
2018-08-24T07:59:45.658Z,98236.45
2018-08-24T08:02:14.909Z,98234.84
2018-08-24T08:04:44.120Z,98230.53
2018-08-24T08:07:13.456Z,98238.02
2018-08-24T08:09:42.650Z,98233.67
2018-08-24T08:12:11.805Z,98236.51
2018-08-24T08:14:45.160Z,98240.26
2018-08-24T08:17:14.438Z,98237.35
2018-08-24T08:19:43.671Z,98237.76
2018-08-24T08:22:12.854Z,98229.17
2018-08-24T08:24:42.059Z,98235.36
2018-08-24T08:27:11.359Z,98237.10
2018-08-24T08:29:45.755Z,98236.51
2018-08-24T08:32:14.999Z,98232.24
2018-08-24T08:34:53.316Z,98235.70
2018-08-24T08:37:27.463Z,98231.56
2018-08-24T08:39:59.062Z,98232.17
2018-08-24T08:42:29.179Z,98238.64
2018-08-24T08:44:58.553Z,98238.36
2018-08-24T08:47:27.758Z,98233.03
2018-08-24T08:49:57.015Z,98231.98
2018-08-24T08:52:26.245Z,98241.59
2018-08-24T08:54:55.437Z,98242.91
2018-08-24T08:57:24.690Z,98234.79
2018-08-24T08:59:53.938Z,98237.27
2018-08-24T09:02:23.218Z,98238.51
2018-08-24T09:04:52.424Z,98235.55
2018-08-24T09:07:21.736Z,98239.50
2018-08-24T09:09:51.013Z,98240.28
2018-08-24T09:12:20.346Z,98239.59
2018-08-24T09:14:49.598Z,98238.75
2018-08-24T09:17:24.013Z,98232.74
2018-08-24T09:19:58.454Z,98237.50
2018-08-24T09:22:32.945Z,98233.59
2018-08-24T09:25:07.432Z,98233.79
2018-08-24T09:27:44.718Z,98228.61
2018-08-24T09:30:14.015Z,98226.25
2018-08-24T09:32:43.415Z,98225.25
2018-08-24T09:35:12.525Z,98218.07
2018-08-24T09:37:41.878Z,98213.71
2018-08-24T09:40:11.131Z,98215.73
2018-08-24T09:42:40.400Z,98206.97
2018-08-24T09:45:09.739Z,98210.86
2018-08-24T09:47:44.779Z,98205.95
2018-08-24T09:50:19.291Z,98205.50
2018-08-24T09:52:54.711Z,98206.22
2018-08-24T09:55:26.620Z,98209.37
2018-08-24T09:57:55.882Z,98197.52
2018-08-24T10:00:29.201Z,98204.20
2018-08-24T10:03:03.787Z,98199.03
2018-08-24T10:05:38.119Z,98200.75
2018-08-24T10:08:12.489Z,98205.49
2018-08-24T10:10:41.715Z,98199.22
2018-08-24T10:13:11.088Z,98196.93
2018-08-24T10:15:40.333Z,98193.80
2018-08-24T10:18:09.543Z,98193.42
2018-08-24T10:20:38.787Z,98190.02
2018-08-24T10:23:08.210Z,98191.33
2018-08-24T10:25:37.438Z,98192.61
2018-08-24T10:28:06.636Z,98189.71
2018-08-24T10:30:35.868Z,98186.11
2018-08-24T10:33:05.354Z,98185.28
2018-08-24T10:35:34.628Z,98185.99
2018-08-24T10:38:03.883Z,98186.16
2018-08-24T10:40:33.128Z,98184.62
2018-08-24T10:43:02.386Z,98182.34
2018-08-24T10:45:31.603Z,98173.45
2018-08-24T10:48:00.849Z,98171.34
2018-08-24T10:50:30.102Z,98177.50
2018-08-24T10:52:59.926Z,98165.58
2018-08-24T10:55:29.335Z,98159.55
2018-08-24T10:57:58.855Z,98163.93
2018-08-24T11:00:28.333Z,98153.40
2018-08-24T11:02:57.865Z,98150.83
2018-08-24T11:05:27.172Z,98152.80
2018-08-24T11:07:56.429Z,98153.14
2018-08-24T11:10:25.724Z,98147.61
2018-08-24T11:12:54.987Z,98150.28
2018-08-24T11:15:24.228Z,98153.33
2018-08-24T11:17:59.085Z,98148.70
2018-08-24T11:20:28.349Z,98151.27
2018-08-24T11:22:57.673Z,98143.94
2018-08-24T11:25:27.434Z,98138.56
2018-08-24T11:27:56.688Z,98137.66
2018-08-24T11:30:25.985Z,98142.55
2018-08-24T11:32:55.243Z,98143.44
2018-08-24T11:35:24.480Z,98144.48
2018-08-24T11:37:53.710Z,98141.09
2018-08-24T11:40:23.048Z,98137.64
2018-08-24T11:42:52.217Z,98134.25
2018-08-24T11:45:21.422Z,98128.09
2018-08-24T11:47:50.744Z,98114.95
2018-08-24T11:50:20.061Z,98115.23
2018-08-24T11:52:49.729Z,98106.58
2018-08-24T11:55:18.937Z,98109.77
2018-08-24T11:57:48.188Z,98105.67
2018-08-24T12:00:17.364Z,98106.31
2018-08-24T12:02:46.592Z,98105.94
2018-08-24T12:05:15.838Z,98102.80
2018-08-24T12:07:45.091Z,98093.74
2018-08-24T12:10:14.270Z,98090.97
2018-08-24T12:12:43.514Z,98090.38
2018-08-24T12:15:12.794Z,98079.13
2018-08-24T12:17:42.091Z,98078.71
2018-08-24T12:20:11.373Z,98074.30
2018-08-24T12:22:40.597Z,98080.61
2018-08-24T12:25:09.832Z,98076.11
2018-08-24T12:27:39.153Z,98070.84
2018-08-24T12:30:08.416Z,98059.88
2018-08-24T12:32:37.633Z,98059.27
2018-08-24T12:35:07.122Z,98048.98
2018-08-24T12:37:41.709Z,98032.66
2018-08-24T12:40:10.972Z,98033.02
2018-08-24T12:42:40.330Z,98024.67
2018-08-24T12:45:09.715Z,98021.23
2018-08-24T12:47:39.164Z,98021.59
2018-08-24T12:50:08.892Z,98016.67
2018-08-24T12:52:38.429Z,98019.59
2018-08-24T12:55:07.954Z,98016.86
2018-08-24T12:57:37.230Z,98008.22
2018-08-24T13:00:06.605Z,98016.88
2018-08-24T13:02:35.859Z,98013.50
2018-08-24T13:05:05.183Z,98006.59
2018-08-24T13:07:34.506Z,98005.38
2018-08-24T13:10:03.812Z,98001.28
2018-08-24T13:12:33.015Z,97990.54
2018-08-24T13:15:02.416Z,98001.41
2018-08-24T13:17:31.635Z,97997.03
2018-08-24T13:20:00.864Z,97990.86
2018-08-24T13:22:30.150Z,98001.47
2018-08-24T13:24:59.386Z,98001.02
2018-08-24T13:27:28.561Z,97998.08
2018-08-24T13:29:57.835Z,98006.88
2018-08-24T13:32:27.557Z,98005.20
2018-08-24T13:34:56.790Z,97998.05
2018-08-24T13:37:25.989Z,98003.30
2018-08-24T13:39:55.183Z,97993.96
2018-08-24T13:42:24.433Z,98005.33
2018-08-24T13:44:53.700Z,97997.83
2018-08-24T13:47:22.905Z,97997.55
2018-08-24T13:49:52.147Z,97995.80
2018-08-24T13:52:21.357Z,97990.88
2018-08-24T13:54:50.638Z,97993.69
2018-08-24T13:57:19.829Z,97982.80
2018-08-24T13:59:49.184Z,97979.92
2018-08-24T14:02:18.457Z,97990.60
2018-08-24T14:04:47.819Z,97982.78
2018-08-24T14:07:17.026Z,97991.16
2018-08-24T14:09:46.300Z,97988.46
2018-08-24T14:12:15.530Z,97988.83
2018-08-24T14:14:44.751Z,97989.84
2018-08-24T14:17:13.989Z,97990.11
2018-08-24T14:19:43.173Z,97994.17
2018-08-24T14:22:12.386Z,97992.62
2018-08-24T14:24:41.645Z,97992.01
2018-08-24T14:27:11.387Z,97990.11
2018-08-24T14:29:41.301Z,97985.38
2018-08-24T14:32:10.550Z,97986.30
2018-08-24T14:34:39.869Z,97980.27
2018-08-24T14:37:09.239Z,97991.97
2018-08-24T14:39:38.507Z,97990.75
2018-08-24T14:42:08.351Z,97983.61
2018-08-24T14:44:37.615Z,97984.22
2018-08-24T14:47:07.213Z,97991.08
2018-08-24T14:49:36.425Z,97991.08
2018-08-24T14:52:05.710Z,97992.34
2018-08-24T14:54:34.905Z,97986.12
2018-08-24T14:57:04.105Z,97995.02
2018-08-24T14:59:33.417Z,97992.58
2018-08-24T15:02:02.989Z,97992.00
2018-08-24T15:04:32.328Z,97987.98
2018-08-24T15:07:02.010Z,97991.13
2018-08-24T15:09:31.215Z,97996.12
2018-08-24T15:12:00.421Z,97995.43
2018-08-24T15:14:29.694Z,97997.79
2018-08-24T15:16:59.133Z,97993.24
2018-08-24T15:19:28.287Z,97998.71
2018-08-24T15:21:57.802Z,98001.52
2018-08-24T15:24:27.366Z,98006.84
2018-08-24T15:26:56.656Z,98006.20
2018-08-24T15:29:25.921Z,98005.41
2018-08-24T15:31:55.137Z,98007.77
2018-08-24T15:34:24.415Z,98009.68
2018-08-24T15:36:53.620Z,98005.52
2018-08-24T15:39:22.885Z,97995.03
2018-08-24T15:41:52.134Z,98005.77
2018-08-24T15:44:21.302Z,97999.93
2018-08-24T15:46:50.577Z,98005.99
2018-08-24T15:49:19.822Z,98003.17
2018-08-24T15:51:49.652Z,98011.16
2018-08-24T15:54:18.895Z,98005.22
2018-08-24T15:56:48.110Z,98002.75
2018-08-24T15:59:17.279Z,98007.62
2018-08-24T16:01:46.534Z,98005.60
2018-08-24T16:04:15.761Z,98009.92
2018-08-24T16:06:44.950Z,98008.56
2018-08-24T16:09:14.334Z,98011.39
2018-08-24T16:11:43.560Z,98020.13
2018-08-24T16:14:12.871Z,98023.68
2018-08-24T16:16:42.708Z,98018.72
2018-08-24T16:19:13.356Z,98026.42
2018-08-24T16:21:43.188Z,98022.94
2018-08-24T16:24:12.371Z,98031.44
2018-08-24T16:26:41.631Z,98033.53
2018-08-24T16:29:11.457Z,98033.69
2018-08-24T16:31:40.819Z,98036.80
2018-08-24T16:34:10.060Z,98035.74
2018-08-24T16:36:39.369Z,98034.08
2018-08-24T16:39:09.675Z,98033.25
2018-08-24T16:41:39.054Z,98039.37
2018-08-24T16:44:08.399Z,98038.42
2018-08-24T16:46:37.794Z,98047.88
2018-08-24T16:49:07.289Z,98045.91
2018-08-24T16:51:36.601Z,98052.75
2018-08-24T16:54:06.138Z,98054.19
2018-08-24T16:56:35.319Z,98056.66
2018-08-24T16:59:04.549Z,98056.23
2018-08-24T17:01:34.033Z,98067.39
2018-08-24T17:04:03.306Z,98072.43
2018-08-24T17:06:32.611Z,98068.59
2018-08-24T17:09:01.775Z,98060.11
2018-08-24T17:11:31.263Z,98067.10
2018-08-24T17:14:01.897Z,98063.69
2018-08-24T17:16:31.122Z,98065.84
2018-08-24T17:19:00.406Z,98077.16
2018-08-24T17:21:29.758Z,98081.51
2018-08-24T17:23:59.543Z,98078.23
2018-08-24T17:26:32.622Z,98079.94
2018-08-24T17:29:01.821Z,98091.37
2018-08-24T17:31:31.249Z,98089.80
2018-08-24T17:34:00.641Z,98092.27
2018-08-24T17:36:29.947Z,98086.38
2018-08-24T17:38:59.152Z,98090.02
2018-08-24T17:41:28.409Z,98091.12
2018-08-24T17:43:57.572Z,98100.27
2018-08-24T17:46:26.825Z,98106.25
2018-08-24T17:48:56.962Z,98102.50
2018-08-24T17:51:26.131Z,98101.34
2018-08-24T17:53:55.393Z,98105.98
2018-08-24T17:56:25.089Z,98117.52
2018-08-24T17:58:54.267Z,98117.59
2018-08-24T18:01:23.445Z,98114.30
2018-08-24T18:03:53.329Z,98118.83
2018-08-24T18:06:22.589Z,98120.64
2018-08-24T18:08:51.806Z,98127.19
2018-08-24T18:11:21.241Z,98127.85
2018-08-24T18:13:50.434Z,98128.48
2018-08-24T18:16:19.596Z,98127.92
2018-08-24T18:18:48.942Z,98125.97
2018-08-24T18:21:18.340Z,98134.13
2018-08-24T18:23:47.495Z,98128.83
2018-08-24T18:26:16.686Z,98137.98
2018-08-24T18:28:46.460Z,98137.98
2018-08-24T18:31:15.679Z,98148.85
2018-08-24T18:33:44.927Z,98151.11
2018-08-24T18:36:14.097Z,98155.38
2018-08-24T18:38:43.278Z,98158.77
2018-08-24T18:41:12.466Z,98148.78
2018-08-24T18:43:41.766Z,98163.44
2018-08-24T18:46:10.892Z,98163.98
2018-08-24T18:48:40.154Z,98168.14
2018-08-24T18:51:09.424Z,98164.36
2018-08-24T18:53:38.562Z,98168.32
2018-08-24T18:56:07.747Z,98169.52
2018-08-24T18:58:36.923Z,98173.27
2018-08-24T19:01:06.147Z,98172.80
2018-08-24T19:03:36.842Z,98163.01
2018-08-24T19:06:06.043Z,98170.55
2018-08-24T19:08:35.158Z,98166.98
2018-08-24T19:11:09.777Z,98172.95
2018-08-24T19:13:38.976Z,98168.98
2018-08-24T19:16:08.216Z,98168.98
2018-08-24T19:18:42.821Z,98168.98
2018-08-24T19:21:17.269Z,98171.14
2018-08-24T19:23:46.682Z,98171.91
2018-08-24T19:26:16.033Z,98164.67
2018-08-24T19:28:50.395Z,98168.09
2018-08-24T19:31:19.583Z,98167.13
2018-08-24T19:33:48.830Z,98167.47
2018-08-24T19:36:18.245Z,98171.63
2018-08-24T19:38:47.430Z,98168.11
2018-08-24T19:41:21.727Z,98170.57
2018-08-24T19:43:50.885Z,98166.84
2018-08-24T19:46:20.051Z,98173.37
2018-08-24T19:48:54.425Z,98169.95
2018-08-24T19:51:23.693Z,98169.02
2018-08-24T19:53:53.192Z,98168.77
2018-08-24T19:56:22.405Z,98165.03
2018-08-24T19:58:56.791Z,98169.19
2018-08-24T20:01:26.168Z,98161.70
2018-08-24T20:03:55.357Z,98160.09
2018-08-24T20:06:29.888Z,98162.58
2018-08-24T20:09:04.108Z,98163.44
2018-08-24T20:11:34.423Z,98163.06
2018-08-24T20:14:03.655Z,98162.72
2018-08-24T20:16:38.024Z,98159.00
2018-08-24T20:19:07.451Z,98160.59
2018-08-24T20:21:36.984Z,98160.66
2018-08-24T20:24:06.377Z,98162.26
2018-08-24T20:26:35.490Z,98160.52
2018-08-24T20:29:04.748Z,98157.31
2018-08-24T20:31:34.043Z,98159.30
2018-08-24T20:34:03.342Z,98159.46
2018-08-24T20:36:32.632Z,98162.51
2018-08-24T20:39:01.796Z,98161.38
2018-08-24T20:41:30.975Z,98159.71
2018-08-24T20:44:00.201Z,98162.97
2018-08-24T20:46:29.465Z,98173.34
2018-08-24T20:48:58.663Z,98171.19
2018-08-24T20:51:27.863Z,98178.98
2018-08-24T20:53:57.093Z,98185.45
2018-08-24T20:56:26.348Z,98180.33
2018-08-24T20:58:55.687Z,98179.56
2018-08-24T21:01:24.938Z,98181.69
2018-08-24T21:03:54.179Z,98177.63
2018-08-24T21:06:23.401Z,98184.64
2018-08-24T21:08:52.631Z,98187.10
2018-08-24T21:11:21.817Z,98182.57
2018-08-24T21:13:51.042Z,98187.69
2018-08-24T21:16:20.323Z,98191.17
2018-08-24T21:18:51.201Z,98187.35
2018-08-24T21:21:20.504Z,98187.82
2018-08-24T21:23:49.832Z,98189.09
2018-08-24T21:26:18.995Z,98193.41
2018-08-24T21:28:48.183Z,98193.65
2018-08-24T21:31:17.425Z,98194.20
2018-08-24T21:33:46.790Z,98201.19
2018-08-24T21:36:16.030Z,98198.73
2018-08-24T21:38:45.280Z,98194.67
2018-08-24T21:41:14.505Z,98197.63
2018-08-24T21:43:43.718Z,98187.59
2018-08-24T21:46:13.037Z,98189.50
2018-08-24T21:48:42.156Z,98187.59
2018-08-24T21:51:11.347Z,98191.72
2018-08-24T21:53:40.547Z,98187.90
2018-08-24T21:56:09.774Z,98190.36
2018-08-24T21:58:39.038Z,98190.94
2018-08-24T22:01:08.299Z,98195.31
2018-08-24T22:03:37.569Z,98198.35
2018-08-24T22:06:06.811Z,98199.07
2018-08-24T22:08:36.023Z,98207.20
2018-08-24T22:11:05.341Z,98210.55
2018-08-24T22:13:34.532Z,98214.91
2018-08-24T22:16:03.754Z,98219.86
2018-08-24T22:18:33.001Z,98215.54
2018-08-24T22:21:02.203Z,98216.01
2018-08-24T22:23:31.431Z,98217.36
2018-08-24T22:26:00.638Z,98222.44
2018-08-24T22:28:29.847Z,98225.72
2018-08-24T22:30:59.047Z,98220.43
2018-08-24T22:33:28.296Z,98220.38
2018-08-24T22:35:57.548Z,98219.02
2018-08-24T22:38:26.836Z,98224.08
2018-08-24T22:40:56.047Z,98219.55
2018-08-24T22:43:30.317Z,98213.16
2018-08-24T22:45:59.585Z,98212.44
2018-08-24T22:48:28.936Z,98209.69
2018-08-24T22:50:58.314Z,98206.73
2018-08-24T22:53:27.715Z,98207.44
2018-08-24T22:55:56.945Z,98206.38
2018-08-24T22:58:26.325Z,98203.98
2018-08-24T23:00:55.673Z,98199.75
2018-08-24T23:03:25.362Z,98203.80
2018-08-24T23:05:54.588Z,98203.66
2018-08-24T23:08:23.807Z,98201.03
2018-08-24T23:11:00.358Z,98207.31
2018-08-24T23:13:29.615Z,98202.93
2018-08-24T23:15:58.799Z,98193.53
2018-08-24T23:18:28.001Z,98197.59
2018-08-24T23:20:57.212Z,98188.20
2018-08-24T23:23:26.413Z,98197.34
2018-08-24T23:25:55.633Z,98190.11
2018-08-24T23:28:24.849Z,98193.11
2018-08-24T23:30:54.185Z,98187.77
2018-08-24T23:33:23.385Z,98183.72
2018-08-24T23:35:52.636Z,98184.38
2018-08-24T23:38:21.812Z,98180.06
2018-08-24T23:40:51.033Z,98173.67
2018-08-24T23:43:20.236Z,98177.52
2018-08-24T23:45:49.537Z,98172.03
2018-08-24T23:48:18.766Z,98166.13
2018-08-24T23:50:48.008Z,98170.91
2018-08-24T23:53:17.211Z,98166.45
2018-08-24T23:55:46.424Z,98161.81
2018-08-24T23:58:15.626Z,98163.05
